To NAV CANADA Home Page Login to a new session Search on AWWS site Feedback and Comments Disclaimer Vers la page française équivalente Tips FAQ What's new on the site To the Forecasts and Observations / NOTAM section To "File a Flight Plan" website Publications and other links Update of the User's profile FIC Telephone Numbers My Weather Data Folder Route Weather Data Regional Weather Data Local Weather Data To the Forecasts and Observations / NOTAM section
Request Generated 08/22/2017 at 03:18:13 UTC . Weather information available at that time is displayed.

METAR/TAF

SWIFT CURRENT/SK    (show WxCam)

METAR CYYN 220300Z AUTO 36003KT 9SM CLR 17/01 A3016 RMK SLP216
DENSITY ALT 3200FT=
METAR CYYN 220200Z AUTO 34003KT 9SM CLR 17/02 A3015 RMK SLP214
DENSITY ALT 3200FT=
METAR CYYN 220100Z AUTO 34005KT 9SM CLR 20/00 A3014 RMK SLP213
DENSITY ALT 3500FT=

TAF CYYN 212338Z 2200/2212 32010KT P6SM SKC
BECMG 2203/2205 VRB03KT
FM220600 15010KT P6SM BKN100
BECMG 2209/2211 17012KT
RMK FCST BASED ON AUTO OBS. NXT FCST BY 220600Z=
Your time UTC time
Weather data provided by Environment Canada and NAV CANADA